Time;durP1;ratioP1;P1;durP2;ratioP2;P2;SDS_P1;SDS_P2;PMS_P1;PMS_P2;Temp;Humidity;BMP_temperature;BMP_pressure;BME280_temperature;BME280_humidity;BME280_pressure;Samples;Min_cycle;Max_cycle;Signal;HPM_P1;HPM_P2
2023/11/02 00:01:07;;;;;;;;;;;11.70;86.30;;;;;;5094275;28;19932;-67
2023/11/02 00:03:55;;;;;;;;;;;11.70;86.40;;;;;;5096937;28;20207;-65
2023/11/02 00:06:46;;;;;;;;;;;11.70;86.40;;;;;;5095728;28;19931;-66
2023/11/02 00:09:35;;;;;;;;;;;11.70;86.60;;;;;;5097227;27;19935;-62
2023/11/02 00:12:11;;;;;;;;;;;11.70;86.70;;;;;;5089911;28;19977;-62
2023/11/02 00:14:46;;;;;;;;;;;11.70;86.70;;;;;;5091519;28;20326;-61
2023/11/02 00:17:53;;;;;;;;;;;11.70;86.80;;;;;;5096388;28;19939;-61
2023/11/02 00:20:37;;;;;;;;;;;11.70;86.90;;;;;;5098878;27;19928;-61
2023/11/02 00:23:12;;;;;;;;;;;11.60;86.90;;;;;;5099968;28;19927;-61
2023/11/02 00:25:52;;;;;;;;;;;11.70;86.80;;;;;;5097487;28;20303;-58
2023/11/02 00:28:25;;;;;;;;;;;11.60;87.00;;;;;;5093694;27;19969;-60
2023/11/02 00:31:00;;;;;;;;;;;11.70;87.00;;;;;;5095059;28;19963;-60
2023/11/02 00:33:27;;;;;;;;;;;11.60;87.10;;;;;;5097181;28;19932;-60
2023/11/02 00:36:08;;;;;;;;;;;11.60;87.20;;;;;;5101567;28;19924;-61
2023/11/02 00:38:41;;;;;;;;;;;11.70;87.10;;;;;;5103096;28;19928;-62
2023/11/02 00:41:15;;;;;;;;;;;11.60;87.10;;;;;;5094315;28;19951;-61
2023/11/02 00:43:48;;;;;;;;;;;11.60;87.30;;;;;;5109462;27;20279;-61
2023/11/02 00:46:23;;;;;;;;;;;11.60;87.40;;;;;;5093789;28;19928;-60
2023/11/02 00:48:56;;;;;;;;;;;11.60;87.40;;;;;;5096637;27;20023;-61
2023/11/02 00:51:30;;;;;;;;;;;11.50;87.50;;;;;;5096957;28;19971;-61
2023/11/02 00:54:07;;;;;;;;;;;11.50;87.50;;;;;;5095950;28;19997;-61
2023/11/02 00:56:40;;;;;;;;;;;11.50;87.30;;;;;;5101351;27;19924;-61
2023/11/02 00:59:18;;;;;;;;;;;11.60;87.10;;;;;;5091084;27;19932;-61
2023/11/02 01:01:52;;;;;;;;;;;11.60;86.90;;;;;;5097059;28;19928;-60
2023/11/02 01:04:48;;;;;;;;;;;11.60;86.90;;;;;;5090060;28;20447;-61
2023/11/02 01:07:21;;;;;;;;;;;11.60;86.90;;;;;;5094821;28;19923;-61
2023/11/02 01:09:59;;;;;;;;;;;11.60;86.90;;;;;;5106118;27;19947;-62
2023/11/02 01:12:33;;;;;;;;;;;11.60;86.80;;;;;;5098218;28;20608;-61
2023/11/02 01:15:08;;;;;;;;;;;11.50;86.70;;;;;;5092960;28;19939;-61
2023/11/02 01:17:43;;;;;;;;;;;11.60;86.60;;;;;;5094577;28;20029;-65
2023/11/02 01:20:38;;;;;;;;;;;11.50;86.70;;;;;;5082951;28;19924;-62
2023/11/02 01:23:15;;;;;;;;;;;11.50;86.60;;;;;;5094236;28;19935;-63
2023/11/02 01:25:49;;;;;;;;;;;11.50;86.60;;;;;;5089711;28;19923;-65
2023/11/02 01:28:24;;;;;;;;;;;11.40;86.40;;;;;;5092054;28;19936;-63
2023/11/02 01:31:15;;;;;;;;;;;11.40;86.50;;;;;;5100724;28;19928;-63
2023/11/02 01:33:59;;;;;;;;;;;11.30;86.50;;;;;;5100263;28;19924;-65
2023/11/02 01:36:34;;;;;;;;;;;11.30;86.40;;;;;;5099866;28;19935;-63
2023/11/02 01:39:09;;;;;;;;;;;11.20;86.60;;;;;;5101253;27;20019;-64
2023/11/02 01:41:44;;;;;;;;;;;11.20;86.60;;;;;;5100210;27;20382;-65
2023/11/02 01:44:19;;;;;;;;;;;11.20;86.60;;;;;;5098270;28;19932;-63
2023/11/02 01:46:58;;;;;;;;;;;11.20;86.50;;;;;;5101178;28;20006;-64
2023/11/02 01:49:43;;;;;;;;;;;11.10;86.50;;;;;;5095663;28;19924;-65
2023/11/02 01:52:23;;;;;;;;;;;11.10;86.60;;;;;;5099808;28;19927;-64
2023/11/02 01:55:01;;;;;;;;;;;11.10;86.60;;;;;;5097922;28;20774;-64
2023/11/02 01:57:38;;;;;;;;;;;11.00;86.40;;;;;;5096849;27;19929;-64
2023/11/02 02:00:14;;;;;;;;;;;11.10;86.40;;;;;;5092489;28;19924;-64
2023/11/02 02:02:52;;;;;;;;;;;11.00;86.30;;;;;;5092216;28;20019;-64
2023/11/02 02:05:31;;;;;;;;;;;10.90;86.40;;;;;;5082839;28;19931;-64
2023/11/02 02:08:14;;;;;;;;;;;10.90;86.30;;;;;;5093487;28;20004;-64
2023/11/02 02:10:55;;;;;;;;;;;10.90;86.20;;;;;;5094142;28;20378;-63
2023/11/02 02:13:33;;;;;;;;;;;10.90;86.20;;;;;;5086093;28;19923;-64
2023/11/02 02:16:08;;;;;;;;;;;10.90;86.40;;;;;;5097473;28;19928;-64
2023/11/02 02:18:43;;;;;;;;;;;10.80;86.50;;;;;;5095092;28;19923;-64
2023/11/02 02:21:28;;;;;;;;;;;10.70;86.40;;;;;;5089523;28;20015;-63
2023/11/02 02:24:04;;;;;;;;;;;10.70;86.60;;;;;;5095315;27;19931;-63
2023/11/02 02:26:52;;;;;;;;;;;10.70;86.30;;;;;;5089462;28;19963;-63
2023/11/02 02:29:44;;;;;;;;;;;10.70;86.50;;;;;;5097792;28;19924;-67
2023/11/02 02:32:39;;;;;;;;;;;10.80;86.50;;;;;;5097947;28;19935;-68
2023/11/02 02:35:15;;;;;;;;;;;10.70;86.50;;;;;;5099950;28;19935;-68
2023/11/02 02:37:50;;;;;;;;;;;10.70;86.40;;;;;;5096409;28;19932;-68
2023/11/02 02:40:33;;;;;;;;;;;10.70;86.40;;;;;;5090952;28;19928;-67
2023/11/02 02:43:08;;;;;;;;;;;10.60;86.40;;;;;;5095682;28;19928;-68
2023/11/02 02:45:43;;;;;;;;;;;10.60;86.30;;;;;;5093475;28;19951;-69
2023/11/02 02:48:16;;;;;;;;;;;10.60;86.30;;;;;;5110840;27;19933;-69
2023/11/02 02:50:57;;;;;;;;;;;10.70;86.30;;;;;;5092920;28;19938;-69
2023/11/02 02:53:32;;;;;;;;;;;10.60;86.10;;;;;;5110183;27;19930;-70
2023/11/02 02:56:06;;;;;;;;;;;10.70;86.10;;;;;;5094792;28;19930;-69
2023/11/02 02:58:44;;;;;;;;;;;10.70;86.10;;;;;;5091887;28;19928;-69
2023/11/02 03:01:17;;;;;;;;;;;10.60;86.10;;;;;;5092302;28;20014;-69
2023/11/02 03:03:50;;;;;;;;;;;10.60;86.20;;;;;;5103285;27;19931;-69
2023/11/02 03:06:20;;;;;;;;;;;10.60;86.20;;;;;;5092325;28;19963;-68
2023/11/02 03:08:55;;;;;;;;;;;10.60;86.00;;;;;;5093557;28;19928;-68
2023/11/02 03:11:30;;;;;;;;;;;10.60;86.10;;;;;;5092550;28;20036;-68
2023/11/02 03:14:04;;;;;;;;;;;10.70;86.30;;;;;;5090349;28;19993;-68
2023/11/02 03:16:40;;;;;;;;;;;10.70;86.10;;;;;;5093096;28;20460;-67
2023/11/02 03:19:27;;;;;;;;;;;10.60;86.20;;;;;;5094732;28;19993;-67
2023/11/02 03:22:04;;;;;;;;;;;10.60;86.30;;;;;;5084368;28;19928;-68
2023/11/02 03:24:42;;;;;;;;;;;10.60;86.20;;;;;;5097688;28;19966;-68
2023/11/02 03:27:18;;;;;;;;;;;10.60;86.40;;;;;;5099553;28;19936;-68
2023/11/02 03:29:54;;;;;;;;;;;10.60;86.50;;;;;;5095966;28;20377;-68
2023/11/02 03:32:30;;;;;;;;;;;10.70;86.40;;;;;;5099281;28;19940;-68
2023/11/02 03:35:06;;;;;;;;;;;10.60;86.30;;;;;;5098307;28;20014;-67
2023/11/02 03:37:44;;;;;;;;;;;10.70;86.40;;;;;;5099665;28;19928;-60
2023/11/02 03:40:23;;;;;;;;;;;10.70;86.30;;;;;;5100681;28;19979;-60
2023/11/02 03:43:04;;;;;;;;;;;10.60;86.40;;;;;;5104297;28;19928;-60
2023/11/02 03:45:45;;;;;;;;;;;10.60;86.60;;;;;;5099669;28;20395;-60
2023/11/02 03:48:24;;;;;;;;;;;10.60;86.50;;;;;;5111097;27;19928;-63
2023/11/02 03:51:05;;;;;;;;;;;10.70;86.40;;;;;;5099041;27;19938;-62
2023/11/02 03:53:44;;;;;;;;;;;10.60;86.40;;;;;;5094164;28;19930;-61
2023/11/02 03:56:25;;;;;;;;;;;10.60;86.20;;;;;;5098088;28;20348;-60
2023/11/02 03:59:05;;;;;;;;;;;10.60;86.30;;;;;;5096561;28;19923;-61
2023/11/02 04:01:43;;;;;;;;;;;10.70;86.50;;;;;;5094440;28;19924;-60
2023/11/02 04:04:22;;;;;;;;;;;10.70;86.40;;;;;;5099257;28;20405;-61
2023/11/02 04:06:59;;;;;;;;;;;10.70;86.30;;;;;;5102637;28;19935;-60
2023/11/02 04:09:36;;;;;;;;;;;10.70;86.40;;;;;;5102777;28;19930;-61
2023/11/02 04:12:16;;;;;;;;;;;10.60;86.30;;;;;;5096136;28;20703;-60
2023/11/02 04:14:52;;;;;;;;;;;10.60;86.40;;;;;;5091191;28;19984;-61
2023/11/02 04:17:25;;;;;;;;;;;10.60;86.50;;;;;;5090461;28;20847;-62
2023/11/02 04:20:00;;;;;;;;;;;10.60;86.50;;;;;;5092551;28;19928;-60
2023/11/02 04:22:33;;;;;;;;;;;10.60;86.70;;;;;;5092784;28;19932;-61
2023/11/02 04:25:11;;;;;;;;;;;10.60;86.70;;;;;;5095877;28;19927;-61
2023/11/02 04:27:44;;;;;;;;;;;10.60;86.80;;;;;;5098706;28;20330;-62
2023/11/02 04:30:17;;;;;;;;;;;10.60;86.70;;;;;;5103048;28;19935;-61
2023/11/02 04:32:50;;;;;;;;;;;10.60;86.60;;;;;;5100171;27;19972;-60
2023/11/02 04:35:23;;;;;;;;;;;10.60;86.30;;;;;;5103174;28;20329;-59
2023/11/02 04:38:10;;;;;;;;;;;10.60;85.90;;;;;;5099368;28;19923;-61
2023/11/02 04:40:45;;;;;;;;;;;10.60;85.70;;;;;;5100087;27;19967;-60
2023/11/02 04:43:18;;;;;;;;;;;10.60;85.70;;;;;;5094737;28;19924;-62
2023/11/02 04:45:51;;;;;;;;;;;10.70;85.30;;;;;;5094411;28;19924;-62
2023/11/02 04:48:24;;;;;;;;;;;10.70;85.10;;;;;;5096864;28;19955;-74
2023/11/02 04:50:58;;;;;;;;;;;10.60;85.10;;;;;;5098882;27;20411;-74
2023/11/02 04:53:31;;;;;;;;;;;10.70;85.10;;;;;;5098528;28;19928;-76
2023/11/02 04:56:06;;;;;;;;;;;10.70;85.20;;;;;;5091750;27;19935;-75
2023/11/02 04:58:39;;;;;;;;;;;10.70;85.20;;;;;;5088820;28;20521;-75
2023/11/02 05:01:12;;;;;;;;;;;10.70;85.40;;;;;;5091248;28;19939;-75
2023/11/02 05:03:45;;;;;;;;;;;10.60;85.30;;;;;;5088984;28;19943;-75
2023/11/02 05:06:18;;;;;;;;;;;10.70;85.50;;;;;;5112085;27;19981;-75
2023/11/02 05:08:51;;;;;;;;;;;10.60;85.60;;;;;;5094153;28;19953;-74
2023/11/02 05:11:26;;;;;;;;;;;10.60;85.80;;;;;;5095606;28;19962;-73
2023/11/02 05:13:59;;;;;;;;;;;10.60;85.70;;;;;;5089325;28;19928;-74
2023/11/02 05:16:26;;;;;;;;;;;10.60;86.10;;;;;;5092596;28;20018;-74
2023/11/02 05:18:59;;;;;;;;;;;10.50;86.20;;;;;;5095237;28;19953;-73
2023/11/02 05:21:32;;;;;;;;;;;10.60;86.30;;;;;;5090561;28;20370;-73
2023/11/02 05:24:06;;;;;;;;;;;10.60;86.50;;;;;;5091351;27;19931;-76
2023/11/02 05:26:41;;;;;;;;;;;10.50;86.50;;;;;;5095791;28;19963;-74
2023/11/02 05:29:13;;;;;;;;;;;10.50;86.60;;;;;;5096591;28;19928;-73
2023/11/02 05:31:46;;;;;;;;;;;10.50;86.70;;;;;;5094272;28;19932;-73
2023/11/02 05:34:19;;;;;;;;;;;10.50;86.70;;;;;;5091415;28;19928;-74
2023/11/02 05:36:53;;;;;;;;;;;10.50;86.80;;;;;;5099731;27;19934;-74
2023/11/02 05:39:27;;;;;;;;;;;10.60;86.70;;;;;;5095943;28;19924;-75
2023/11/02 05:42:02;;;;;;;;;;;10.50;86.80;;;;;;5088738;28;19931;-75
2023/11/02 05:44:35;;;;;;;;;;;10.50;86.70;;;;;;5090792;28;19954;-74
2023/11/02 05:47:08;;;;;;;;;;;10.40;86.80;;;;;;5094413;28;19931;-76
2023/11/02 05:49:41;;;;;;;;;;;10.50;86.80;;;;;;5095748;28;19938;-73
2023/11/02 05:52:14;;;;;;;;;;;10.40;86.90;;;;;;5091737;28;19939;-73
2023/11/02 05:54:48;;;;;;;;;;;10.40;86.90;;;;;;5091229;27;19924;-73
2023/11/02 05:57:23;;;;;;;;;;;10.40;86.90;;;;;;5096181;28;20291;-67
2023/11/02 05:59:57;;;;;;;;;;;10.40;87.10;;;;;;5096743;28;20287;-66
2023/11/02 06:02:35;;;;;;;;;;;10.40;87.20;;;;;;5097297;28;19928;-67
2023/11/02 06:05:09;;;;;;;;;;;10.40;87.20;;;;;;5090417;28;19928;-66
2023/11/02 06:07:42;;;;;;;;;;;10.40;87.40;;;;;;5095313;28;19924;-67
2023/11/02 06:10:15;;;;;;;;;;;10.40;87.40;;;;;;5085500;27;19970;-66
2023/11/02 06:12:50;;;;;;;;;;;10.40;87.60;;;;;;5090976;27;20368;-66
2023/11/02 06:15:23;;;;;;;;;;;10.30;87.60;;;;;;5088746;28;22814;-65
2023/11/02 06:17:56;;;;;;;;;;;10.30;87.70;;;;;;5095702;28;20299;-66
2023/11/02 06:20:29;;;;;;;;;;;10.30;87.70;;;;;;5092797;28;20405;-66
2023/11/02 06:23:03;;;;;;;;;;;10.40;87.70;;;;;;5095713;28;19932;-65
2023/11/02 06:25:36;;;;;;;;;;;10.40;87.80;;;;;;5090918;28;20345;-65
2023/11/02 06:28:11;;;;;;;;;;;10.40;87.90;;;;;;5090180;28;19938;-66
2023/11/02 06:30:44;;;;;;;;;;;10.40;88.00;;;;;;5097552;28;19934;-66
2023/11/02 06:33:20;;;;;;;;;;;10.40;88.20;;;;;;5095181;28;20276;-66
2023/11/02 06:35:54;;;;;;;;;;;10.30;88.30;;;;;;5102158;28;19923;-65
2023/11/02 06:38:29;;;;;;;;;;;10.30;88.40;;;;;;5093948;28;20156;-66
2023/11/02 06:41:02;;;;;;;;;;;10.40;88.40;;;;;;5090655;28;20023;-66
2023/11/02 06:43:41;;;;;;;;;;;10.30;88.30;;;;;;5097343;28;19934;-67
2023/11/02 06:46:14;;;;;;;;;;;10.30;88.50;;;;;;5089523;28;20021;-67
2023/11/02 06:48:47;;;;;;;;;;;10.40;88.60;;;;;;5086651;28;19950;-65
2023/11/02 06:51:21;;;;;;;;;;;10.30;88.50;;;;;;5084190;28;20271;-66
2023/11/02 06:53:54;;;;;;;;;;;10.30;88.50;;;;;;5088759;28;19928;-66
2023/11/02 06:56:27;;;;;;;;;;;10.30;88.60;;;;;;5096461;27;19924;-66
2023/11/02 06:59:02;;;;;;;;;;;10.30;88.50;;;;;;5089065;28;19928;-66
2023/11/02 07:01:36;;;;;;;;;;;10.30;88.60;;;;;;5092989;28;20366;-67
2023/11/02 07:04:09;;;;;;;;;;;10.30;88.60;;;;;;5094500;28;19947;-67
2023/11/02 07:06:42;;;;;;;;;;;10.30;88.60;;;;;;5095484;28;19928;-61
2023/11/02 07:09:16;;;;;;;;;;;10.30;88.60;;;;;;5089282;28;19924;-60
2023/11/02 07:11:49;;;;;;;;;;;10.30;88.70;;;;;;5099497;28;19967;-61
2023/11/02 07:14:25;;;;;;;;;;;10.30;88.60;;;;;;5090748;27;19924;-61
2023/11/02 07:16:57;;;;;;;;;;;10.30;88.80;;;;;;5090173;28;19943;-61
2023/11/02 07:19:30;;;;;;;;;;;10.30;88.80;;;;;;5098734;28;19924;-61
2023/11/02 07:22:04;;;;;;;;;;;10.30;88.70;;;;;;5095932;28;19924;-61
2023/11/02 07:24:36;;;;;;;;;;;10.20;88.80;;;;;;5086480;28;20410;-61
2023/11/02 07:27:10;;;;;;;;;;;10.20;88.90;;;;;;5090939;28;19928;-62
2023/11/02 07:29:44;;;;;;;;;;;10.20;88.80;;;;;;5092552;28;19932;-60
2023/11/02 07:32:17;;;;;;;;;;;10.20;88.90;;;;;;5094995;28;19967;-60
2023/11/02 07:34:51;;;;;;;;;;;10.20;88.80;;;;;;5092732;28;19934;-61
2023/11/02 07:37:23;;;;;;;;;;;10.20;88.90;;;;;;5089285;28;19943;-60
2023/11/02 07:39:56;;;;;;;;;;;10.20;88.90;;;;;;5094607;28;19939;-61
2023/11/02 07:42:29;;;;;;;;;;;10.30;88.80;;;;;;5096951;28;19932;-61
2023/11/02 07:45:04;;;;;;;;;;;10.20;88.90;;;;;;5096181;28;19938;-62
2023/11/02 07:47:37;;;;;;;;;;;10.20;88.90;;;;;;5092029;28;19924;-60
2023/11/02 07:50:11;;;;;;;;;;;10.20;88.90;;;;;;5095984;28;19943;-60
2023/11/02 07:52:44;;;;;;;;;;;10.20;88.80;;;;;;5093849;28;19935;-62
2023/11/02 07:55:17;;;;;;;;;;;10.20;88.70;;;;;;5085348;28;19954;-62
2023/11/02 07:57:50;;;;;;;;;;;10.20;88.90;;;;;;5086727;28;19928;-61
2023/11/02 08:00:25;;;;;;;;;;;10.20;88.90;;;;;;5085752;28;19932;-60
2023/11/02 08:02:59;;;;;;;;;;;10.20;88.90;;;;;;5096719;28;20398;-60
2023/11/02 08:05:31;;;;;;;;;;;10.20;88.90;;;;;;5093159;28;20325;-60
2023/11/02 08:08:05;;;;;;;;;;;10.20;88.90;;;;;;5085731;28;19924;-61
2023/11/02 08:10:38;;;;;;;;;;;10.20;88.90;;;;;;5092626;28;20012;-61
2023/11/02 08:13:12;;;;;;;;;;;10.20;88.80;;;;;;5091809;28;19928;-60
2023/11/02 08:15:47;;;;;;;;;;;10.30;88.90;;;;;;5092044;28;20022;-62
2023/11/02 08:18:22;;;;;;;;;;;10.30;89.00;;;;;;5091886;28;19935;-65
2023/11/02 08:20:56;;;;;;;;;;;10.30;88.90;;;;;;5094647;28;19935;-66
2023/11/02 08:23:28;;;;;;;;;;;10.30;88.90;;;;;;5085087;28;19932;-66
2023/11/02 08:26:02;;;;;;;;;;;10.30;89.10;;;;;;5108736;27;19960;-67
2023/11/02 08:28:34;;;;;;;;;;;10.30;89.00;;;;;;5096738;28;20383;-67
2023/11/02 08:31:09;;;;;;;;;;;10.20;89.10;;;;;;5102045;28;19924;-66
2023/11/02 08:33:42;;;;;;;;;;;10.20;89.00;;;;;;5099728;28;19927;-67
2023/11/02 08:36:16;;;;;;;;;;;10.20;89.00;;;;;;5103740;28;19931;-67
2023/11/02 08:38:42;;;;;;;;;;;10.20;88.80;;;;;;5094147;28;19937;-67
2023/11/02 08:41:20;;;;;;;;;;;10.30;88.80;;;;;;5093213;28;19940;-66
2023/11/02 08:43:56;;;;;;;;;;;10.40;88.50;;;;;;5097583;27;19935;-66
2023/11/02 08:46:31;;;;;;;;;;;10.40;88.50;;;;;;5098299;28;19928;-67
2023/11/02 08:49:04;;;;;;;;;;;10.40;88.60;;;;;;5101108;28;19930;-66
2023/11/02 08:51:38;;;;;;;;;;;10.40;88.70;;;;;;5103038;28;19935;-66
2023/11/02 08:54:11;;;;;;;;;;;10.50;88.70;;;;;;5096516;27;19928;-66
2023/11/02 08:56:45;;;;;;;;;;;10.50;88.50;;;;;;5098750;28;19931;-66
2023/11/02 08:59:20;;;;;;;;;;;10.50;88.30;;;;;;5098121;28;19935;-66
2023/11/02 09:01:56;;;;;;;;;;;10.50;88.40;;;;;;5097493;28;19928;-66
2023/11/02 09:04:30;;;;;;;;;;;10.50;88.30;;;;;;5098171;28;19924;-67
2023/11/02 09:07:03;;;;;;;;;;;10.50;88.30;;;;;;5097265;27;19935;-67
2023/11/02 09:09:36;;;;;;;;;;;10.60;88.30;;;;;;5095637;28;20386;-65
2023/11/02 09:12:10;;;;;;;;;;;10.70;88.10;;;;;;5093942;28;19928;-66
2023/11/02 09:14:44;;;;;;;;;;;10.60;88.30;;;;;;5098360;27;20012;-67
2023/11/02 09:17:19;;;;;;;;;;;10.70;88.20;;;;;;5095359;28;19928;-67
2023/11/02 09:19:54;;;;;;;;;;;10.80;88.00;;;;;;5099676;28;19924;-67
2023/11/02 09:22:28;;;;;;;;;;;10.80;88.10;;;;;;5100849;28;19928;-67
2023/11/02 09:25:01;;;;;;;;;;;10.80;87.90;;;;;;5099052;28;19928;-67
2023/11/02 09:27:34;;;;;;;;;;;10.80;88.10;;;;;;5103750;28;20371;-61
2023/11/02 09:30:08;;;;;;;;;;;10.80;88.00;;;;;;5098118;28;20398;-60
2023/11/02 09:32:44;;;;;;;;;;;10.80;88.10;;;;;;5113383;27;19928;-61
2023/11/02 09:35:18;;;;;;;;;;;10.70;88.20;;;;;;5101829;28;19924;-62
2023/11/02 09:37:50;;;;;;;;;;;10.80;88.20;;;;;;5092460;28;19928;-61
2023/11/02 09:40:23;;;;;;;;;;;10.80;88.30;;;;;;5077724;28;19932;-61
2023/11/02 09:43:01;;;;;;;;;;;10.90;88.40;;;;;;5092297;27;19924;-58
2023/11/02 09:45:36;;;;;;;;;;;10.90;88.20;;;;;;5096061;28;19924;-61
2023/11/02 09:48:11;;;;;;;;;;;10.90;88.00;;;;;;5097447;28;19932;-61
2023/11/02 09:50:45;;;;;;;;;;;10.90;88.20;;;;;;5101515;28;19931;-60
2023/11/02 09:53:18;;;;;;;;;;;10.90;88.20;;;;;;5094835;28;19981;-61
2023/11/02 09:55:53;;;;;;;;;;;10.90;88.20;;;;;;5094617;28;19928;-60
2023/11/02 09:58:25;;;;;;;;;;;11.00;88.30;;;;;;5085804;28;19924;-61
2023/11/02 10:01:00;;;;;;;;;;;11.10;88.20;;;;;;5089699;28;20287;-62
2023/11/02 10:03:34;;;;;;;;;;;11.10;88.20;;;;;;5087395;28;20008;-60
2023/11/02 10:06:08;;;;;;;;;;;11.10;88.20;;;;;;5097508;28;20016;-61
2023/11/02 10:08:42;;;;;;;;;;;11.10;88.10;;;;;;5091901;28;19924;-61
2023/11/02 10:11:16;;;;;;;;;;;11.10;88.20;;;;;;5097057;28;20330;-61
2023/11/02 10:13:50;;;;;;;;;;;11.20;88.10;;;;;;5080119;28;19928;-60
2023/11/02 10:16:23;;;;;;;;;;;11.20;88.30;;;;;;5091286;28;19950;-60
2023/11/02 10:18:58;;;;;;;;;;;11.20;88.50;;;;;;5087725;27;19931;-62
2023/11/02 10:21:32;;;;;;;;;;;11.20;88.40;;;;;;5094919;28;19981;-61
2023/11/02 10:24:06;;;;;;;;;;;11.20;88.50;;;;;;5092771;28;19959;-61
2023/11/02 10:26:40;;;;;;;;;;;11.30;88.60;;;;;;5098628;28;20326;-61
2023/11/02 10:29:13;;;;;;;;;;;11.30;88.60;;;;;;5092602;27;19927;-61
2023/11/02 10:31:52;;;;;;;;;;;11.30;88.50;;;;;;5100137;28;19923;-60
2023/11/02 10:34:27;;;;;;;;;;;11.30;88.60;;;;;;5099218;27;20439;-60
2023/11/02 10:37:02;;;;;;;;;;;11.30;88.50;;;;;;5096134;28;19932;-66
2023/11/02 10:39:36;;;;;;;;;;;11.30;88.50;;;;;;5089040;28;19924;-67
2023/11/02 10:42:09;;;;;;;;;;;11.30;88.60;;;;;;5084787;28;19986;-67
2023/11/02 10:44:42;;;;;;;;;;;11.40;88.60;;;;;;5093568;28;19924;-67
2023/11/02 10:47:15;;;;;;;;;;;11.40;88.70;;;;;;5094573;28;19928;-67
2023/11/02 10:49:53;;;;;;;;;;;11.50;88.50;;;;;;5096988;28;19977;-67
2023/11/02 10:52:44;;;;;;;;;;;11.50;88.60;;;;;;5094400;28;19924;-67
2023/11/02 10:55:22;;;;;;;;;;;11.50;88.50;;;;;;5087351;28;20042;-66
2023/11/02 10:57:56;;;;;;;;;;;11.60;88.40;;;;;;5094244;28;19928;-66
2023/11/02 11:00:30;;;;;;;;;;;11.60;88.30;;;;;;5084706;28;19943;-67
2023/11/02 11:02:57;;;;;;;;;;;11.60;88.20;;;;;;5086183;28;19988;-66
2023/11/02 11:05:32;;;;;;;;;;;11.70;88.20;;;;;;5092002;27;20340;-67
2023/11/02 11:08:07;;;;;;;;;;;11.70;88.10;;;;;;5086564;27;19928;-67
2023/11/02 11:10:40;;;;;;;;;;;11.80;88.10;;;;;;5088292;28;19924;-67
2023/11/02 11:13:21;;;;;;;;;;;11.90;88.00;;;;;;5089004;28;20435;-66
2023/11/02 11:15:55;;;;;;;;;;;11.90;87.90;;;;;;5083606;28;19924;-65
2023/11/02 11:18:29;;;;;;;;;;;11.90;87.90;;;;;;5098010;28;19928;-66
2023/11/02 11:21:05;;;;;;;;;;;12.00;87.70;;;;;;5101260;28;20341;-67
2023/11/02 11:23:44;;;;;;;;;;;12.10;87.60;;;;;;5092484;28;19931;-66
2023/11/02 11:26:18;;;;;;;;;;;12.10;87.50;;;;;;5095878;28;20023;-66
2023/11/02 11:28:52;;;;;;;;;;;12.10;87.40;;;;;;5094666;28;20388;-67
2023/11/02 11:31:44;;;;;;;;;;;12.20;87.40;;;;;;5094969;28;19928;-66
2023/11/02 11:34:25;;;;;;;;;;;12.10;87.20;;;;;;5095218;28;19924;-66
2023/11/02 11:37:12;;;;;;;;;;;12.20;87.30;;;;;;5098956;28;19935;-66
2023/11/02 11:39:53;;;;;;;;;;;12.20;87.20;;;;;;5099294;28;20423;-67
2023/11/02 11:42:48;;;;;;;;;;;12.20;87.20;;;;;;5098384;28;19924;-68
2023/11/02 11:45:27;;;;;;;;;;;12.20;87.10;;;;;;5093677;28;19935;-68
2023/11/02 11:48:02;;;;;;;;;;;12.20;87.10;;;;;;5097077;28;20023;-61
2023/11/02 11:50:36;;;;;;;;;;;12.20;87.10;;;;;;5097151;28;19935;-60
2023/11/02 11:53:17;;;;;;;;;;;12.20;87.20;;;;;;5095868;28;19931;-61
2023/11/02 11:55:52;;;;;;;;;;;12.20;87.10;;;;;;5098106;28;19934;-61
2023/11/02 11:58:40;;;;;;;;;;;12.20;87.10;;;;;;5098954;28;19928;-62
2023/11/02 12:01:15;;;;;;;;;;;12.20;87.10;;;;;;5100927;28;20416;-60
2023/11/02 12:03:49;;;;;;;;;;;12.20;87.00;;;;;;5098190;28;20260;-60
2023/11/02 12:06:37;;;;;;;;;;;12.20;86.80;;;;;;5098599;27;19932;-61
2023/11/02 12:09:13;;;;;;;;;;;12.20;86.80;;;;;;5097311;28;19950;-61
2023/11/02 12:11:47;;;;;;;;;;;12.20;86.80;;;;;;5103518;27;19923;-61
2023/11/02 12:14:21;;;;;;;;;;;12.20;86.80;;;;;;5099865;28;20441;-60
2023/11/02 12:16:54;;;;;;;;;;;12.30;86.80;;;;;;5088872;28;19925;-61
2023/11/02 12:19:28;;;;;;;;;;;12.20;86.80;;;;;;5099960;28;20276;-60
2023/11/02 12:22:01;;;;;;;;;;;12.20;86.70;;;;;;5100997;27;19924;-60
2023/11/02 12:24:38;;;;;;;;;;;12.30;86.70;;;;;;5098641;28;20283;-60
2023/11/02 12:27:15;;;;;;;;;;;12.30;86.70;;;;;;5096807;28;19928;-62
2023/11/02 12:30:08;;;;;;;;;;;12.30;86.60;;;;;;5097708;28;20027;-61
2023/11/02 12:32:41;;;;;;;;;;;12.30;86.30;;;;;;5090368;28;20434;-60
2023/11/02 12:35:17;;;;;;;;;;;12.30;86.10;;;;;;5101081;27;19928;-60
2023/11/02 12:37:59;;;;;;;;;;;12.40;85.90;;;;;;5083737;27;19960;-62
2023/11/02 12:40:54;;;;;;;;;;;12.40;85.90;;;;;;5083930;28;19925;-62
2023/11/02 12:43:29;;;;;;;;;;;12.40;85.70;;;;;;5079517;28;19942;-61
2023/11/02 12:46:04;;;;;;;;;;;12.40;85.40;;;;;;5089308;28;19932;-61
2023/11/02 12:48:38;;;;;;;;;;;12.50;85.30;;;;;;5100233;28;19928;-61
2023/11/02 12:51:15;;;;;;;;;;;12.50;85.30;;;;;;5098366;28;20010;-61
2023/11/02 12:53:49;;;;;;;;;;;12.50;85.30;;;;;;5101405;28;19961;-62
2023/11/02 12:56:25;;;;;;;;;;;12.50;85.20;;;;;;5099079;28;20390;-60
2023/11/02 12:59:00;;;;;;;;;;;12.50;85.20;;;;;;5092998;28;19932;-60
2023/11/02 13:01:42;;;;;;;;;;;12.50;85.20;;;;;;5098301;27;19946;-60
2023/11/02 13:04:16;;;;;;;;;;;12.60;85.20;;;;;;5098873;27;19962;-58
2023/11/02 13:06:51;;;;;;;;;;;12.60;85.10;;;;;;5098394;28;19928;-60
2023/11/02 13:09:26;;;;;;;;;;;12.50;85.10;;;;;;5097801;28;19927;-60
2023/11/02 13:12:00;;;;;;;;;;;12.50;85.00;;;;;;5099798;28;19974;-61
2023/11/02 13:14:34;;;;;;;;;;;12.50;84.80;;;;;;5090976;28;19932;-61
2023/11/02 13:17:08;;;;;;;;;;;12.50;84.70;;;;;;5103763;28;20014;-59
2023/11/02 13:19:42;;;;;;;;;;;12.50;84.60;;;;;;5103043;28;19936;-60
2023/11/02 13:22:15;;;;;;;;;;;12.50;84.70;;;;;;5095686;28;19928;-59
2023/11/02 13:24:49;;;;;;;;;;;12.50;84.70;;;;;;5098994;28;19931;-61
2023/11/02 13:27:29;;;;;;;;;;;12.50;84.70;;;;;;5102771;28;19995;-61
2023/11/02 13:30:06;;;;;;;;;;;12.50;84.80;;;;;;5098988;28;20011;-60
2023/11/02 13:32:39;;;;;;;;;;;12.50;84.50;;;;;;5093443;28;20011;-59
2023/11/02 13:35:13;;;;;;;;;;;12.50;84.40;;;;;;5102196;28;19931;-59
2023/11/02 13:37:46;;;;;;;;;;;12.50;84.50;;;;;;5096959;28;20030;-60
2023/11/02 13:40:26;;;;;;;;;;;12.40;84.50;;;;;;5098091;28;19924;-60
2023/11/02 13:43:00;;;;;;;;;;;12.50;84.50;;;;;;5108409;27;20375;-62
2023/11/02 13:45:35;;;;;;;;;;;12.40;84.40;;;;;;5102073;28;20359;-60
2023/11/02 13:48:09;;;;;;;;;;;12.50;84.40;;;;;;5100305;28;19950;-60
2023/11/02 13:50:42;;;;;;;;;;;12.40;84.40;;;;;;5101628;28;20004;-61
2023/11/02 13:53:15;;;;;;;;;;;12.40;84.40;;;;;;5100830;28;19973;-61
2023/11/02 13:55:48;;;;;;;;;;;12.40;84.30;;;;;;5099947;28;19927;-61
2023/11/02 13:58:22;;;;;;;;;;;12.40;84.50;;;;;;5101724;28;19999;-59
2023/11/02 14:00:56;;;;;;;;;;;12.40;84.40;;;;;;5098363;28;19924;-59
2023/11/02 14:03:30;;;;;;;;;;;12.40;84.40;;;;;;5097003;28;19931;-60
2023/11/02 14:06:04;;;;;;;;;;;12.50;84.20;;;;;;5099393;28;19924;-60
2023/11/02 14:08:38;;;;;;;;;;;12.40;84.00;;;;;;5098881;28;19924;-59
2023/11/02 14:11:12;;;;;;;;;;;12.40;83.80;;;;;;5099373;28;19955;-60
2023/11/02 14:13:45;;;;;;;;;;;12.40;84.00;;;;;;5098132;28;19936;-60
2023/11/02 14:16:13;;;;;;;;;;;12.40;83.90;;;;;;5099267;28;20397;-58
2023/11/02 14:18:46;;;;;;;;;;;12.40;84.00;;;;;;5100720;28;19924;-60
2023/11/02 14:21:19;;;;;;;;;;;12.40;84.00;;;;;;5086902;28;19934;-61
2023/11/02 14:23:52;;;;;;;;;;;12.50;83.80;;;;;;5092342;28;19970;-61
2023/11/02 14:26:25;;;;;;;;;;;12.40;83.80;;;;;;5095750;28;19924;-60
2023/11/02 14:28:58;;;;;;;;;;;12.40;83.80;;;;;;5101462;28;19924;-60
2023/11/02 14:31:32;;;;;;;;;;;12.40;83.70;;;;;;5092660;28;19959;-59
2023/11/02 14:34:06;;;;;;;;;;;12.40;83.50;;;;;;5097952;28;19963;-60
2023/11/02 14:36:40;;;;;;;;;;;12.40;83.50;;;;;;5102231;28;19924;-61
2023/11/02 14:39:14;;;;;;;;;;;12.40;83.30;;;;;;5099310;28;19955;-60
2023/11/02 14:41:47;;;;;;;;;;;12.40;83.10;;;;;;5094385;28;19924;-61
2023/11/02 14:44:21;;;;;;;;;;;12.40;82.90;;;;;;5098783;28;19928;-60
2023/11/02 14:46:56;;;;;;;;;;;12.40;82.80;;;;;;5098573;28;19928;-62
2023/11/02 14:49:29;;;;;;;;;;;12.40;82.70;;;;;;5088478;28;19932;-61
2023/11/02 14:52:06;;;;;;;;;;;12.40;82.70;;;;;;5089143;28;20383;-61
2023/11/02 14:54:40;;;;;;;;;;;12.40;82.80;;;;;;5096816;28;20017;-59
2023/11/02 14:57:13;;;;;;;;;;;12.40;82.90;;;;;;5092163;28;20306;-60
2023/11/02 14:59:46;;;;;;;;;;;12.40;82.90;;;;;;5082654;28;19924;-60
2023/11/02 15:02:22;;;;;;;;;;;12.40;82.90;;;;;;5091173;28;20018;-60
2023/11/02 15:04:56;;;;;;;;;;;12.40;82.80;;;;;;5090117;28;19923;-59